Time;durP1;ratioP1;P1;durP2;ratioP2;P2;SDS_P1;SDS_P2;PMS_P1;PMS_P2;Temp;Humidity;BMP_temperature;BMP_pressure;BME280_temperature;BME280_humidity;BME280_pressure;Samples;Min_cycle;Max_cycle;Signal;HPM_P1;HPM_P2
2022/05/18 00:02:24;;;;;;;;;;;17.50;99.90;;;;;;6244698;23;19920;-76
2022/05/18 00:04:50;;;;;;;;;;;17.40;99.90;;;;;;6219697;23;19920;-76
2022/05/18 00:07:15;;;;;;;;;;;17.60;99.90;;;;;;6244925;23;19926;-79
2022/05/18 00:09:41;;;;;;;;;;;17.40;99.90;;;;;;6244671;23;19919;-78
2022/05/18 00:12:07;;;;;;;;;;;17.50;99.90;;;;;;6244512;23;19920;-73
2022/05/18 00:14:33;;;;;;;;;;;17.40;99.90;;;;;;6218556;23;20296;-71
2022/05/18 00:17:02;;;;;;;;;;;17.40;99.90;;;;;;6219618;23;19996;-74
2022/05/18 00:19:32;;;;;;;;;;;17.30;99.90;;;;;;6219581;23;20333;-74
2022/05/18 00:21:57;;;;;;;;;;;17.30;99.90;;;;;;6219149;23;20018;-79
2022/05/18 00:24:23;;;;;;;;;;;17.20;99.90;;;;;;6244436;23;19920;-76
2022/05/18 00:26:48;;;;;;;;;;;17.30;99.90;;;;;;6219200;23;19925;-75
2022/05/18 00:29:14;;;;;;;;;;;17.20;99.90;;;;;;6244105;23;19916;-75
2022/05/18 00:31:42;;;;;;;;;;;17.20;99.90;;;;;;6244380;23;19927;-74
2022/05/18 00:34:08;;;;;;;;;;;17.10;99.90;;;;;;6244788;23;19915;-77
2022/05/18 00:36:34;;;;;;;;;;;17.10;99.90;;;;;;6244644;23;19919;-76
2022/05/18 00:39:00;;;;;;;;;;;17.00;99.90;;;;;;6243568;23;20372;-71
2022/05/18 00:41:27;;;;;;;;;;;17.00;99.90;;;;;;6245149;23;19926;-78
2022/05/18 00:43:53;;;;;;;;;;;16.90;99.90;;;;;;6218700;23;20006;-73
2022/05/18 00:46:21;;;;;;;;;;;16.90;99.90;;;;;;6244381;23;19920;-76
2022/05/18 00:48:47;;;;;;;;;;;17.00;99.90;;;;;;6244508;23;19919;-76
2022/05/18 00:51:18;;;;;;;;;;;16.80;99.90;;;;;;6244287;23;19924;-78
2022/05/18 00:53:53;;;;;;;;;;;16.80;99.90;;;;;;6244544;23;19927;-76
2022/05/18 00:56:21;;;;;;;;;;;16.80;99.90;;;;;;6246438;23;20286;-70
2022/05/18 00:58:49;;;;;;;;;;;16.70;99.90;;;;;;6243968;23;20242;-71
2022/05/18 01:01:18;;;;;;;;;;;16.70;99.90;;;;;;6218816;23;19951;-71
2022/05/18 01:03:45;;;;;;;;;;;16.70;99.90;;;;;;6218664;23;19965;-72
2022/05/18 01:06:23;;;;;;;;;;;16.70;99.90;;;;;;6245886;22;19923;-69
2022/05/18 01:08:57;;;;;;;;;;;16.70;99.90;;;;;;6244715;23;20284;-72
2022/05/18 01:11:22;;;;;;;;;;;16.70;99.90;;;;;;6245964;22;19963;-71
2022/05/18 01:13:48;;;;;;;;;;;16.70;99.90;;;;;;6245365;22;19923;-71
2022/05/18 01:16:14;;;;;;;;;;;16.70;99.90;;;;;;6243844;23;19927;-72
2022/05/18 01:18:40;;;;;;;;;;;16.70;99.90;;;;;;6243768;23;19942;-72
2022/05/18 01:21:06;;;;;;;;;;;16.70;99.90;;;;;;6244043;23;19916;-72
2022/05/18 01:23:50;;;;;;;;;;;16.60;99.90;;;;;;6245718;22;20006;-71
2022/05/18 01:26:16;;;;;;;;;;;16.60;99.90;;;;;;6246815;23;19963;-71
2022/05/18 01:28:44;;;;;;;;;;;16.60;99.90;;;;;;6247796;22;20150;-71
2022/05/18 01:31:10;;;;;;;;;;;16.60;99.90;;;;;;6247252;22;19969;-72
2022/05/18 01:33:36;;;;;;;;;;;16.50;99.90;;;;;;6248399;22;19923;-72
2022/05/18 01:36:02;;;;;;;;;;;16.50;99.90;;;;;;6247193;23;19927;-72
2022/05/18 01:38:28;;;;;;;;;;;16.50;99.90;;;;;;6250545;22;19981;-72
2022/05/18 01:40:59;;;;;;;;;;;16.40;99.90;;;;;;6247049;22;19963;-71
2022/05/18 01:43:24;;;;;;;;;;;16.40;99.90;;;;;;6247581;22;19920;-71
2022/05/18 01:45:53;;;;;;;;;;;16.40;99.90;;;;;;6247494;22;20384;-70
2022/05/18 01:48:23;;;;;;;;;;;16.30;99.90;;;;;;6221053;23;19927;-68
2022/05/18 01:50:49;;;;;;;;;;;16.30;99.90;;;;;;6247538;22;20318;-71
2022/05/18 01:53:14;;;;;;;;;;;16.30;99.90;;;;;;6247550;22;20015;-70
2022/05/18 01:55:40;;;;;;;;;;;16.20;99.90;;;;;;6245601;23;20321;-70
2022/05/18 01:58:07;;;;;;;;;;;16.20;99.90;;;;;;6220303;23;19920;-69
2022/05/18 02:00:35;;;;;;;;;;;16.20;99.90;;;;;;6247077;22;20340;-70
2022/05/18 02:03:02;;;;;;;;;;;16.10;99.90;;;;;;6246310;22;19920;-70
2022/05/18 02:05:30;;;;;;;;;;;16.10;99.90;;;;;;6245476;23;19927;-70
2022/05/18 02:07:57;;;;;;;;;;;16.00;99.90;;;;;;6247507;22;20337;-71
2022/05/18 02:10:23;;;;;;;;;;;16.10;99.90;;;;;;6244927;23;19931;-71
2022/05/18 02:12:49;;;;;;;;;;;16.00;99.90;;;;;;6245258;23;19924;-71
2022/05/18 02:15:14;;;;;;;;;;;16.00;99.90;;;;;;6245411;23;19919;-71
2022/05/18 02:17:40;;;;;;;;;;;16.00;99.90;;;;;;6247394;22;19919;-71
2022/05/18 02:20:06;;;;;;;;;;;16.00;99.90;;;;;;6247176;22;19986;-72
2022/05/18 02:22:32;;;;;;;;;;;16.00;99.90;;;;;;6245210;23;19953;-73
2022/05/18 02:24:57;;;;;;;;;;;16.00;99.90;;;;;;6246912;22;19965;-72
2022/05/18 02:27:23;;;;;;;;;;;16.00;99.90;;;;;;6245571;23;19919;-72
2022/05/18 02:29:50;;;;;;;;;;;16.00;99.90;;;;;;6246820;22;19927;-72
2022/05/18 02:32:16;;;;;;;;;;;15.90;99.90;;;;;;6247107;22;20249;-71
2022/05/18 02:34:42;;;;;;;;;;;15.90;99.90;;;;;;6246797;22;19923;-72
2022/05/18 02:37:07;;;;;;;;;;;15.90;99.90;;;;;;6246936;22;19989;-72
2022/05/18 02:39:33;;;;;;;;;;;15.90;99.90;;;;;;6246539;22;19920;-72
2022/05/18 02:41:58;;;;;;;;;;;15.80;99.90;;;;;;6246956;22;19926;-72
2022/05/18 02:44:24;;;;;;;;;;;15.80;99.90;;;;;;6246596;22;19923;-72
2022/05/18 02:46:49;;;;;;;;;;;15.80;99.90;;;;;;6245215;23;19923;-72
2022/05/18 02:49:18;;;;;;;;;;;15.80;99.90;;;;;;6244974;23;19966;-70
2022/05/18 02:51:43;;;;;;;;;;;15.80;99.90;;;;;;6246784;22;19920;-72
2022/05/18 02:56:54;;;;;;;;;;;15.70;99.90;;;;;;6244896;23;19947;-72
2022/05/18 02:59:20;;;;;;;;;;;15.60;99.90;;;;;;6244948;23;19919;-70
2022/05/18 03:01:46;;;;;;;;;;;15.70;99.90;;;;;;6246997;22;20191;-72
2022/05/18 03:04:12;;;;;;;;;;;15.60;99.90;;;;;;6244911;23;19946;-72
2022/05/18 03:06:40;;;;;;;;;;;15.60;99.90;;;;;;6246359;22;19920;-72
2022/05/18 03:09:06;;;;;;;;;;;15.60;99.90;;;;;;6245275;23;20250;-71
2022/05/18 03:11:31;;;;;;;;;;;15.60;99.90;;;;;;6246576;22;19920;-72
2022/05/18 03:13:57;;;;;;;;;;;15.60;99.90;;;;;;6244525;23;20274;-73
2022/05/18 03:16:24;;;;;;;;;;;15.70;99.90;;;;;;6245208;23;19947;-72
2022/05/18 03:18:50;;;;;;;;;;;15.60;99.90;;;;;;6246946;22;19919;-71
2022/05/18 03:23:59;;;;;;;;;;;15.50;99.90;;;;;;6246661;23;19936;-73
2022/05/18 03:26:25;;;;;;;;;;;15.50;99.90;;;;;;6246924;22;19928;-70
2022/05/18 03:28:52;;;;;;;;;;;15.50;99.90;;;;;;6244951;23;19977;-72
2022/05/18 03:31:18;;;;;;;;;;;15.50;99.90;;;;;;6246654;22;19920;-73
2022/05/18 03:33:44;;;;;;;;;;;15.50;99.90;;;;;;6244946;23;19919;-72
2022/05/18 03:36:12;;;;;;;;;;;15.40;99.90;;;;;;6245102;23;20250;-73
2022/05/18 03:38:38;;;;;;;;;;;15.40;99.90;;;;;;6244814;23;20361;-71
2022/05/18 03:41:03;;;;;;;;;;;15.40;99.90;;;;;;6248115;22;20401;-71
2022/05/18 03:43:29;;;;;;;;;;;15.40;99.90;;;;;;6248802;22;19947;-75
2022/05/18 03:45:55;;;;;;;;;;;15.30;99.90;;;;;;6246388;22;20292;-72
2022/05/18 03:48:20;;;;;;;;;;;15.30;99.90;;;;;;6245664;22;20334;-71
2022/05/18 03:50:48;;;;;;;;;;;15.30;99.90;;;;;;6246397;22;19919;-70
2022/05/18 03:53:15;;;;;;;;;;;15.20;99.90;;;;;;6245686;22;19926;-72
2022/05/18 03:55:41;;;;;;;;;;;15.30;99.90;;;;;;6244498;23;20325;-71
2022/05/18 03:58:07;;;;;;;;;;;15.30;99.90;;;;;;6246633;22;19920;-70
2022/05/18 04:00:33;;;;;;;;;;;15.30;99.90;;;;;;6246043;22;19930;-69
2022/05/18 04:02:59;;;;;;;;;;;15.30;99.90;;;;;;6246399;22;19920;-71
2022/05/18 04:05:25;;;;;;;;;;;15.30;99.90;;;;;;6244345;23;20253;-70
2022/05/18 04:07:50;;;;;;;;;;;15.30;99.90;;;;;;6246199;22;20309;-70
2022/05/18 04:10:16;;;;;;;;;;;15.30;99.90;;;;;;6243672;23;19974;-70
2022/05/18 04:12:43;;;;;;;;;;;15.30;99.90;;;;;;6244396;23;19924;-72
2022/05/18 04:15:10;;;;;;;;;;;15.20;99.90;;;;;;6246040;22;19919;-71
2022/05/18 04:17:41;;;;;;;;;;;15.20;99.90;;;;;;6244401;23;19928;-71
2022/05/18 04:20:07;;;;;;;;;;;15.30;99.90;;;;;;6244760;23;19920;-71
2022/05/18 04:22:32;;;;;;;;;;;15.30;99.90;;;;;;6244708;23;20230;-70
2022/05/18 04:25:01;;;;;;;;;;;15.50;99.90;;;;;;6243994;23;19994;-71
2022/05/18 04:27:28;;;;;;;;;;;15.30;99.90;;;;;;6243822;23;19920;-70
2022/05/18 04:29:59;;;;;;;;;;;15.60;99.90;;;;;;6244548;23;19920;-72
2022/05/18 04:32:25;;;;;;;;;;;15.40;99.90;;;;;;6244881;23;19979;-72
2022/05/18 04:34:51;;;;;;;;;;;15.50;99.90;;;;;;6219219;23;19920;-72
2022/05/18 04:37:19;;;;;;;;;;;15.40;99.90;;;;;;6244485;23;19919;-70
2022/05/18 04:39:45;;;;;;;;;;;15.80;99.90;;;;;;6218627;23;19986;-72
2022/05/18 04:42:11;;;;;;;;;;;15.50;99.90;;;;;;6245311;22;20333;-69
2022/05/18 04:44:37;;;;;;;;;;;15.50;99.90;;;;;;6245747;22;19920;-71
2022/05/18 04:47:03;;;;;;;;;;;15.60;99.90;;;;;;6244357;23;20002;-70
2022/05/18 04:49:29;;;;;;;;;;;15.50;99.90;;;;;;6243009;23;19923;-70
2022/05/18 04:51:54;;;;;;;;;;;15.60;99.90;;;;;;6245961;22;19919;-72
2022/05/18 04:54:20;;;;;;;;;;;15.60;99.90;;;;;;6245775;22;20305;-72
2022/05/18 04:56:46;;;;;;;;;;;15.60;99.90;;;;;;6243831;23;19993;-71
2022/05/18 04:59:12;;;;;;;;;;;15.60;99.90;;;;;;6244383;23;20227;-71
2022/05/18 05:01:38;;;;;;;;;;;15.60;99.90;;;;;;6219333;23;19916;-70
2022/05/18 05:04:09;;;;;;;;;;;15.60;99.90;;;;;;6219198;23;20227;-68
2022/05/18 05:06:38;;;;;;;;;;;15.70;99.90;;;;;;6244541;23;19919;-71
2022/05/18 05:09:04;;;;;;;;;;;15.70;99.90;;;;;;6219817;23;20006;-76
2022/05/18 05:11:29;;;;;;;;;;;15.80;99.90;;;;;;6246463;22;20342;-70
2022/05/18 05:13:55;;;;;;;;;;;15.80;99.90;;;;;;6245871;22;19922;-73
2022/05/18 05:16:23;;;;;;;;;;;15.90;99.90;;;;;;6219088;23;20286;-71
2022/05/18 05:18:49;;;;;;;;;;;15.90;99.90;;;;;;6219530;23;20341;-72
2022/05/18 05:21:14;;;;;;;;;;;16.00;99.90;;;;;;6219481;23;19990;-74
2022/05/18 05:23:40;;;;;;;;;;;16.00;99.90;;;;;;6219497;23;19931;-73
2022/05/18 05:26:05;;;;;;;;;;;16.10;99.90;;;;;;6244436;23;19958;-70
2022/05/18 05:28:31;;;;;;;;;;;16.20;99.90;;;;;;6218651;23;20297;-71
2022/05/18 05:31:04;;;;;;;;;;;16.20;99.90;;;;;;6217727;23;20009;-80
2022/05/18 05:33:30;;;;;;;;;;;16.30;99.90;;;;;;6245735;22;20330;-73
2022/05/18 05:35:55;;;;;;;;;;;16.40;99.90;;;;;;6246264;22;19923;-72
2022/05/18 05:38:21;;;;;;;;;;;16.40;99.90;;;;;;6243242;23;19926;-70
2022/05/18 05:40:56;;;;;;;;;;;16.50;99.90;;;;;;6245044;22;19958;-72
2022/05/18 05:43:21;;;;;;;;;;;16.60;99.90;;;;;;6219845;23;19985;-69
2022/05/18 05:45:54;;;;;;;;;;;16.60;99.90;;;;;;6247118;23;19924;-74
2022/05/18 05:48:20;;;;;;;;;;;16.70;99.90;;;;;;6231068;23;19919;-68
2022/05/18 05:50:45;;;;;;;;;;;16.80;99.90;;;;;;6244587;23;19922;-80
2022/05/18 05:53:19;;;;;;;;;;;16.90;99.90;;;;;;6245782;22;19951;-71
2022/05/18 05:55:47;;;;;;;;;;;17.00;99.90;;;;;;6218870;23;19947;-75
2022/05/18 05:58:14;;;;;;;;;;;17.00;99.90;;;;;;6218849;23;19928;-70
2022/05/18 06:00:40;;;;;;;;;;;17.10;99.90;;;;;;6243392;23;20037;-71
2022/05/18 06:03:05;;;;;;;;;;;17.20;99.90;;;;;;6218625;23;19955;-69
2022/05/18 06:05:31;;;;;;;;;;;17.30;99.90;;;;;;6218681;23;20357;-70
2022/05/18 06:07:57;;;;;;;;;;;17.20;99.90;;;;;;6242950;23;19920;-70
2022/05/18 06:10:23;;;;;;;;;;;17.50;99.90;;;;;;6243978;23;20276;-70
2022/05/18 06:12:48;;;;;;;;;;;17.30;99.90;;;;;;6220050;23;19919;-72
2022/05/18 06:15:14;;;;;;;;;;;17.30;99.90;;;;;;6220094;23;20364;-71
2022/05/18 06:17:40;;;;;;;;;;;17.40;99.90;;;;;;6220622;23;19920;-73
2022/05/18 06:20:06;;;;;;;;;;;17.50;99.90;;;;;;6245853;23;19920;-70
2022/05/18 06:22:31;;;;;;;;;;;17.60;99.90;;;;;;6220461;23;19942;-72
2022/05/18 06:24:57;;;;;;;;;;;17.60;99.90;;;;;;6220078;23;19969;-71
2022/05/18 06:27:23;;;;;;;;;;;17.80;99.90;;;;;;6245785;23;19923;-72
2022/05/18 06:29:48;;;;;;;;;;;17.80;99.90;;;;;;6245896;23;20334;-72
2022/05/18 06:32:14;;;;;;;;;;;18.00;99.90;;;;;;6245268;23;19926;-71
2022/05/18 06:34:40;;;;;;;;;;;18.00;99.90;;;;;;6220623;23;19926;-73
2022/05/18 06:37:06;;;;;;;;;;;18.20;99.90;;;;;;6245659;23;19923;-71
2022/05/18 06:39:32;;;;;;;;;;;18.20;99.90;;;;;;6219372;23;19924;-72
2022/05/18 06:41:58;;;;;;;;;;;18.30;99.90;;;;;;6245857;23;19927;-71
2022/05/18 06:44:24;;;;;;;;;;;18.40;99.90;;;;;;6220180;23;20285;-71
2022/05/18 06:46:50;;;;;;;;;;;18.50;99.90;;;;;;6219699;23;19919;-71
2022/05/18 06:49:18;;;;;;;;;;;18.60;99.90;;;;;;6245715;23;20342;-72
2022/05/18 06:51:45;;;;;;;;;;;18.70;99.90;;;;;;6216046;23;19920;-74
2022/05/18 06:54:14;;;;;;;;;;;18.80;99.90;;;;;;6217309;23;19930;-78
2022/05/18 06:56:41;;;;;;;;;;;18.90;99.90;;;;;;6214542;23;20345;-75
2022/05/18 06:59:06;;;;;;;;;;;19.00;99.90;;;;;;6244622;22;19955;-77
2022/05/18 07:01:32;;;;;;;;;;;19.10;99.90;;;;;;6245043;22;19923;-77
2022/05/18 07:03:58;;;;;;;;;;;19.20;99.90;;;;;;6243580;22;19982;-76
2022/05/18 07:06:24;;;;;;;;;;;19.30;99.90;;;;;;6245404;22;19920;-74
2022/05/18 07:08:55;;;;;;;;;;;19.40;99.90;;;;;;6241923;23;19915;-75
2022/05/18 07:11:22;;;;;;;;;;;19.60;99.90;;;;;;6245224;22;19920;-73
2022/05/18 07:13:51;;;;;;;;;;;19.70;99.90;;;;;;6243737;22;19916;-74
2022/05/18 07:16:26;;;;;;;;;;;19.90;99.90;;;;;;6245105;22;20318;-77
2022/05/18 07:19:00;;;;;;;;;;;20.10;99.90;;;;;;6216564;23;19923;-74
2022/05/18 07:21:29;;;;;;;;;;;20.30;99.90;;;;;;6245166;22;19918;-77
2022/05/18 07:23:58;;;;;;;;;;;20.40;99.90;;;;;;6242664;23;19971;-75
2022/05/18 07:26:24;;;;;;;;;;;20.60;99.90;;;;;;6244769;22;19919;-77
2022/05/18 07:28:51;;;;;;;;;;;20.80;99.90;;;;;;6243126;23;19962;-77
2022/05/18 07:31:19;;;;;;;;;;;20.90;99.90;;;;;;6244733;22;19951;-76
2022/05/18 07:33:46;;;;;;;;;;;20.90;99.90;;;;;;6243969;22;20252;-77
2022/05/18 07:36:11;;;;;;;;;;;21.00;99.90;;;;;;6244086;22;19926;-73
2022/05/18 07:38:42;;;;;;;;;;;21.10;99.90;;;;;;6245099;22;20554;-74
2022/05/18 07:41:13;;;;;;;;;;;21.20;99.90;;;;;;6244182;22;20324;-78
2022/05/18 07:43:41;;;;;;;;;;;21.30;99.90;;;;;;6242089;23;19935;-75
2022/05/18 07:46:08;;;;;;;;;;;21.40;99.90;;;;;;6234659;22;20164;-75
2022/05/18 07:48:39;;;;;;;;;;;21.40;99.90;;;;;;6241047;23;20299;-74
2022/05/18 07:51:10;;;;;;;;;;;21.60;99.90;;;;;;6240928;22;20071;-74
2022/05/18 07:53:41;;;;;;;;;;;21.70;99.90;;;;;;6241564;22;19931;-78
2022/05/18 07:56:08;;;;;;;;;;;21.90;99.90;;;;;;6212205;23;19920;-76
2022/05/18 07:58:34;;;;;;;;;;;22.00;99.90;;;;;;6240045;23;19955;-75
2022/05/18 08:01:00;;;;;;;;;;;22.10;99.90;;;;;;6240842;23;20328;-72
2022/05/18 08:03:25;;;;;;;;;;;22.20;99.90;;;;;;6240772;22;19930;-73
2022/05/18 08:05:51;;;;;;;;;;;22.40;99.90;;;;;;6239015;22;19919;-73
2022/05/18 08:08:18;;;;;;;;;;;22.50;99.90;;;;;;6241307;22;19920;-71
2022/05/18 08:16:30;;;;;;;;;;;22.90;99.90;;;;;;6238130;23;19919;-69
2022/05/18 08:18:56;;;;;;;;;;;23.00;99.90;;;;;;6214841;23;19923;-67
2022/05/18 08:21:22;;;;;;;;;;;23.20;99.90;;;;;;6241430;22;19936;-69
2022/05/18 08:23:48;;;;;;;;;;;23.40;99.90;;;;;;6241500;22;20300;-70
2022/05/18 08:26:13;;;;;;;;;;;23.50;99.90;;;;;;6240327;22;19926;-69
2022/05/18 08:28:40;;;;;;;;;;;23.60;99.90;;;;;;6242731;22;19931;-71
2022/05/18 08:31:05;;;;;;;;;;;23.70;99.90;;;;;;6241974;23;19923;-69
2022/05/18 08:33:32;;;;;;;;;;;23.90;99.90;;;;;;6240915;23;19935;-68
2022/05/18 08:35:58;;;;;;;;;;;24.00;99.90;;;;;;6240828;22;19934;-70
2022/05/18 08:38:24;;;;;;;;;;;24.00;99.90;;;;;;6240784;23;20310;-68
2022/05/18 08:41:10;;;;;;;;;;;24.10;99.90;;;;;;6243605;22;19967;-69
2022/05/18 08:43:37;;;;;;;;;;;24.20;99.90;;;;;;6241182;23;19970;-69
2022/05/18 08:46:11;;;;;;;;;;;24.20;99.90;;;;;;6241795;22;19928;-69
2022/05/18 08:48:43;;;;;;;;;;;24.30;99.90;;;;;;6242389;22;19919;-68
2022/05/18 08:51:27;;;;;;;;;;;24.40;99.90;;;;;;6244109;22;20257;-68
2022/05/18 08:54:04;;;;;;;;;;;24.60;99.90;;;;;;6242664;23;19969;-67
2022/05/18 08:56:32;;;;;;;;;;;24.90;99.90;;;;;;6241844;22;19927;-68
2022/05/18 08:58:59;;;;;;;;;;;25.10;99.90;;;;;;6243133;22;19919;-69
2022/05/18 09:01:28;;;;;;;;;;;25.30;99.90;;;;;;6240302;23;19994;-68
2022/05/18 09:03:58;;;;;;;;;;;25.30;99.90;;;;;;6243648;22;19930;-69
2022/05/18 09:06:24;;;;;;;;;;;25.40;99.90;;;;;;6213790;23;19974;-69
2022/05/18 09:12:10;;;;;;;;;;;25.70;99.90;;;;;;6125547;23;19921;-68
2022/05/18 09:14:37;;;;;;;;;;;25.90;99.90;;;;;;6122577;23;19931;-69
2022/05/18 09:17:09;;;;;;;;;;;26.00;99.90;;;;;;6125581;23;19924;-69
2022/05/18 09:19:43;;;;;;;;;;;26.10;99.90;;;;;;6101250;23;19920;-68
2022/05/18 09:22:11;;;;;;;;;;;26.10;99.90;;;;;;6149840;23;19921;-69
2022/05/18 09:24:37;;;;;;;;;;;26.20;99.90;;;;;;6147808;23;19931;-69
2022/05/18 09:27:14;;;;;;;;;;;26.30;99.90;;;;;;6150389;23;19948;-68
2022/05/18 09:29:46;;;;;;;;;;;26.50;99.90;;;;;;6149784;23;20263;-67
2022/05/18 09:32:21;;;;;;;;;;;26.50;99.90;;;;;;6149258;23;19928;-69
2022/05/18 09:34:55;;;;;;;;;;;26.60;99.90;;;;;;6148332;23;19928;-69
2022/05/18 09:37:39;;;;;;;;;;;26.70;99.90;;;;;;6150554;23;19920;-69
2022/05/18 09:40:06;;;;;;;;;;;26.80;99.90;;;;;;6149580;23;19927;-69
2022/05/18 09:42:34;;;;;;;;;;;27.00;99.90;;;;;;6180698;23;19919;-70
2022/05/18 09:45:04;;;;;;;;;;;27.10;99.90;;;;;;6238677;23;19925;-69
2022/05/18 09:47:32;;;;;;;;;;;27.10;99.90;;;;;;6241214;23;19962;-68
2022/05/18 09:50:00;;;;;;;;;;;27.20;99.90;;;;;;6243256;23;19991;-69
2022/05/18 09:52:28;;;;;;;;;;;27.30;99.90;;;;;;6244214;23;19919;-69
2022/05/18 09:54:55;;;;;;;;;;;27.40;99.90;;;;;;6244200;22;19923;-68
2022/05/18 09:57:23;;;;;;;;;;;27.50;99.90;;;;;;6244452;22;19923;-68
2022/05/18 09:59:55;;;;;;;;;;;27.50;99.90;;;;;;6245837;22;19998;-69
2022/05/18 10:07:52;;;;;;;;;;;27.80;99.90;;;;;;6245418;23;19924;-68
2022/05/18 10:10:24;;;;;;;;;;;28.00;99.90;;;;;;6244360;22;19919;-69
2022/05/18 10:12:56;;;;;;;;;;;28.00;99.90;;;;;;6244272;22;19927;-69
2022/05/18 10:15:28;;;;;;;;;;;28.20;99.90;;;;;;6243144;22;19919;-69
2022/05/18 10:18:10;;;;;;;;;;;28.30;99.90;;;;;;6244883;22;19915;-69
2022/05/18 10:20:37;;;;;;;;;;;28.30;99.90;;;;;;6244921;22;19927;-69
2022/05/18 10:23:03;;;;;;;;;;;28.50;99.90;;;;;;6242096;23;19959;-69
2022/05/18 10:25:28;;;;;;;;;;;28.40;99.80;;;;;;6243098;22;19919;-68
2022/05/18 10:27:55;;;;;;;;;;;28.50;99.90;;;;;;6244780;22;20006;-69
2022/05/18 10:30:28;;;;;;;;;;;28.50;99.70;;;;;;6245132;22;20374;-69
2022/05/18 10:33:00;;;;;;;;;;;28.50;96.80;;;;;;6245224;22;19926;-72
2022/05/18 10:35:41;;;;;;;;;;;28.70;99.90;;;;;;6242643;22;19923;-72
2022/05/18 10:38:18;;;;;;;;;;;28.70;98.90;;;;;;6245612;22;19920;-69
2022/05/18 10:40:44;;;;;;;;;;;28.80;97.50;;;;;;6244117;22;20011;-71
2022/05/18 10:43:15;;;;;;;;;;;28.90;95.70;;;;;;6245410;22;19943;-71
2022/05/18 10:45:52;;;;;;;;;;;28.90;97.70;;;;;;6238643;22;19927;-74
2022/05/18 10:48:20;;;;;;;;;;;29.00;96.90;;;;;;6242979;22;19924;-74
2022/05/18 10:50:46;;;;;;;;;;;29.10;96.10;;;;;;6216901;23;19915;-75
2022/05/18 10:53:12;;;;;;;;;;;29.20;96.40;;;;;;6241876;22;19974;-73
2022/05/18 10:55:40;;;;;;;;;;;29.30;97.40;;;;;;6240014;22;19920;-73
2022/05/18 10:58:25;;;;;;;;;;;29.40;96.10;;;;;;6241087;23;19919;-73
2022/05/18 11:01:16;;;;;;;;;;;29.40;96.40;;;;;;6216919;23;20010;-73
2022/05/18 11:03:42;;;;;;;;;;;29.50;96.60;;;;;;6241277;23;19950;-71
2022/05/18 11:06:10;;;;;;;;;;;29.50;94.40;;;;;;6213308;23;20549;-73
2022/05/18 11:08:39;;;;;;;;;;;29.60;94.50;;;;;;6241059;23;19951;-75
2022/05/18 11:11:23;;;;;;;;;;;29.60;94.20;;;;;;6241078;23;20023;-71
2022/05/18 11:14:28;;;;;;;;;;;29.60;91.40;;;;;;6216543;23;19923;-73
2022/05/18 11:16:53;;;;;;;;;;;29.70;93.60;;;;;;6097952;23;19924;-74
2022/05/18 11:19:24;;;;;;;;;;;29.90;93.40;;;;;;6125134;23;19976;-73
2022/05/18 11:21:55;;;;;;;;;;;29.90;93.40;;;;;;6099058;23;19928;-78
2022/05/18 11:24:36;;;;;;;;;;;30.00;92.50;;;;;;6124291;23;19924;-74
2022/05/18 11:27:20;;;;;;;;;;;30.00;93.10;;;;;;6098411;23;20056;-74
2022/05/18 11:30:11;;;;;;;;;;;30.00;92.90;;;;;;6149228;23;20275;-73
2022/05/18 11:32:46;;;;;;;;;;;30.00;88.20;;;;;;6148185;23;19917;-73
2022/05/18 11:35:21;;;;;;;;;;;30.00;88.40;;;;;;6147814;23;19920;-73
2022/05/18 11:37:49;;;;;;;;;;;30.00;91.60;;;;;;6147171;23;20286;-73
2022/05/18 11:40:24;;;;;;;;;;;29.90;90.10;;;;;;6123956;23;19921;-73
2022/05/18 11:43:25;;;;;;;;;;;29.90;89.50;;;;;;6148975;23;20366;-74
2022/05/18 11:46:08;;;;;;;;;;;29.90;88.70;;;;;;6097730;23;19924;-76
2022/05/18 11:48:42;;;;;;;;;;;29.70;91.60;;;;;;6227961;23;19919;-74
2022/05/18 11:51:18;;;;;;;;;;;29.90;88.80;;;;;;6243516;22;19920;-73
2022/05/18 11:54:09;;;;;;;;;;;30.10;88.00;;;;;;6244154;22;19931;-71
2022/05/18 11:56:39;;;;;;;;;;;30.10;85.70;;;;;;6242082;22;19920;-74
2022/05/18 11:59:52;;;;;;;;;;;30.10;86.20;;;;;;6240970;22;19924;-72
2022/05/18 12:02:17;;;;;;;;;;;30.30;88.00;;;;;;6233917;23;19946;-74
2022/05/18 12:05:01;;;;;;;;;;;30.40;88.90;;;;;;6238530;23;20309;-71
2022/05/18 12:07:48;;;;;;;;;;;30.40;80.60;;;;;;6242318;22;19923;-74
2022/05/18 12:10:34;;;;;;;;;;;30.40;82.00;;;;;;6240228;23;19927;-73
2022/05/18 12:13:18;;;;;;;;;;;30.30;82.90;;;;;;6215466;23;20310;-75
2022/05/18 12:15:59;;;;;;;;;;;30.10;84.50;;;;;;6213799;23;19924;-74
2022/05/18 12:18:33;;;;;;;;;;;30.00;86.80;;;;;;6238283;23;19920;-73
2022/05/18 12:21:05;;;;;;;;;;;29.80;88.20;;;;;;6240972;23;19927;-73
2022/05/18 12:23:32;;;;;;;;;;;29.60;89.20;;;;;;6240603;23;19915;-73
2022/05/18 12:25:58;;;;;;;;;;;29.40;87.70;;;;;;6239957;22;19920;-72
2022/05/18 12:28:25;;;;;;;;;;;29.30;86.60;;;;;;6242188;22;20257;-73
2022/05/18 12:30:55;;;;;;;;;;;29.20;87.50;;;;;;6239849;23;19974;-70
2022/05/18 12:33:21;;;;;;;;;;;29.40;88.80;;;;;;6184460;23;19928;-70
2022/05/18 12:35:49;;;;;;;;;;;29.70;89.10;;;;;;6208363;23;19923;-75
2022/05/18 12:38:25;;;;;;;;;;;29.70;86.30;;;;;;6210386;23;19942;-73
2022/05/18 12:41:04;;;;;;;;;;;29.60;88.10;;;;;;6208605;23;19920;-74
2022/05/18 12:43:38;;;;;;;;;;;29.30;86.90;;;;;;6210332;23;19926;-73
2022/05/18 12:46:36;;;;;;;;;;;29.20;90.20;;;;;;6208335;23;19927;-74
2022/05/18 12:49:05;;;;;;;;;;;29.10;89.50;;;;;;6094472;23;19925;-79
2022/05/18 12:51:37;;;;;;;;;;;29.00;90.40;;;;;;6198185;23;19998;-72
2022/05/18 12:54:03;;;;;;;;;;;29.00;91.10;;;;;;6240578;22;20377;-71
2022/05/18 12:56:37;;;;;;;;;;;29.10;93.20;;;;;;6212962;23;20010;-83
2022/05/18 12:59:11;;;;;;;;;;;29.00;90.90;;;;;;6215775;23;19923;-71
2022/05/18 13:01:42;;;;;;;;;;;28.90;91.80;;;;;;6214269;23;19920;-81
2022/05/18 13:04:34;;;;;;;;;;;28.90;91.40;;;;;;6214868;23;20002;-72
2022/05/18 13:07:01;;;;;;;;;;;28.80;91.00;;;;;;6231617;23;19920;-73
2022/05/18 13:09:47;;;;;;;;;;;28.60;91.60;;;;;;6215418;23;20321;-76
2022/05/18 13:12:33;;;;;;;;;;;28.40;91.40;;;;;;6214836;23;20344;-71
2022/05/18 13:15:24;;;;;;;;;;;28.20;92.10;;;;;;6213957;23;19919;-77
2022/05/18 13:17:52;;;;;;;;;;;28.10;91.90;;;;;;6215383;23;20218;-77
2022/05/18 13:20:29;;;;;;;;;;;28.00;92.60;;;;;;6240045;23;19927;-69
2022/05/18 13:23:00;;;;;;;;;;;28.00;92.60;;;;;;6216925;23;20413;-69
2022/05/18 13:25:31;;;;;;;;;;;28.00;93.00;;;;;;6242184;22;20219;-74
2022/05/18 13:27:58;;;;;;;;;;;28.10;92.40;;;;;;6217477;23;19946;-71
2022/05/18 13:30:38;;;;;;;;;;;28.10;91.50;;;;;;6243950;22;19959;-72
2022/05/18 13:33:04;;;;;;;;;;;28.10;91.70;;;;;;6242056;23;19923;-72
2022/05/18 13:35:33;;;;;;;;;;;28.10;91.00;;;;;;6242199;22;19924;-73
2022/05/18 13:38:02;;;;;;;;;;;28.10;91.50;;;;;;6216487;23;19927;-71
2022/05/18 13:40:29;;;;;;;;;;;28.00;91.20;;;;;;6217052;23;20054;-73
2022/05/18 13:43:04;;;;;;;;;;;27.90;91.30;;;;;;6217037;23;19974;-71
2022/05/18 13:45:35;;;;;;;;;;;27.80;93.80;;;;;;6240560;23;20403;-73
2022/05/18 13:48:21;;;;;;;;;;;27.80;93.30;;;;;;6240054;23;20233;-73
2022/05/18 13:50:53;;;;;;;;;;;27.70;92.80;;;;;;6217041;23;19962;-72
2022/05/18 13:53:32;;;;;;;;;;;27.60;93.60;;;;;;6240177;23;19920;-73
2022/05/18 13:56:02;;;;;;;;;;;27.60;95.00;;;;;;6239994;23;19916;-72
2022/05/18 13:58:28;;;;;;;;;;;27.60;94.60;;;;;;6216786;23;19919;-72
2022/05/18 14:01:01;;;;;;;;;;;27.60;94.00;;;;;;6216423;23;19939;-73
2022/05/18 14:03:46;;;;;;;;;;;27.60;93.40;;;;;;6215787;23;19958;-71
2022/05/18 14:06:13;;;;;;;;;;;27.70;94.90;;;;;;6240326;23;19920;-73
2022/05/18 14:08:40;;;;;;;;;;;27.90;95.40;;;;;;6215912;23;19962;-71
2022/05/18 14:11:10;;;;;;;;;;;28.00;94.90;;;;;;6242016;23;19920;-73
2022/05/18 14:13:37;;;;;;;;;;;28.00;93.20;;;;;;6239556;23;19923;-81
2022/05/18 14:16:04;;;;;;;;;;;27.90;92.40;;;;;;6238903;23;19927;-82
2022/05/18 14:18:41;;;;;;;;;;;27.80;92.70;;;;;;6241451;23;19994;-80
2022/05/18 14:21:10;;;;;;;;;;;27.70;93.40;;;;;;6215896;23;19994;-80
2022/05/18 14:24:05;;;;;;;;;;;27.60;90.60;;;;;;6239687;22;19998;-78
2022/05/18 14:26:42;;;;;;;;;;;27.50;92.30;;;;;;6236912;23;20235;-72
2022/05/18 14:29:24;;;;;;;;;;;27.40;91.50;;;;;;6216512;23;19955;-73
2022/05/18 14:32:05;;;;;;;;;;;;;;;;;;;;;
2022/05/18 14:35:14;;;;;;;;;;;27.20;94.10;;;;;;6245102;23;19926;-71
2022/05/18 14:38:01;;;;;;;;;;;27.00;95.50;;;;;;6179761;23;19924;-80
2022/05/18 14:40:33;;;;;;;;;;;26.80;96.20;;;;;;6157772;23;19972;-71
2022/05/18 14:43:01;;;;;;;;;;;26.60;97.00;;;;;;6132970;23;19938;-72
2022/05/18 14:45:45;;;;;;;;;;;26.40;97.50;;;;;;6132649;23;19921;-79
2022/05/18 14:48:29;;;;;;;;;;;26.30;98.60;;;;;;6135335;23;19944;-79
2022/05/18 14:51:12;;;;;;;;;;;26.20;99.00;;;;;;6133955;23;20286;-69
2022/05/18 14:53:46;;;;;;;;;;;26.00;99.10;;;;;;6130489;23;19924;-70
2022/05/18 14:56:21;;;;;;;;;;;26.00;99.90;;;;;;6153083;23;20389;-73